Dauntless Aviation
Greetings, Guest! To participate, [sign up for a free account] or [log in]
Airports South America Argentina
SABE
AEP

Aeroparque Jorge Newbery

Buenos Aires, ARGENTINA

Airport Info
Edit

Location

Latitude / Longitude: 34°33'33"S / 58°24'56"W
  34°33.552'S / 58°24.936'W
  -34.5592 / -58.4156

Nearby radio navigation aids

FDO SAN FERNANDO VOR/DME. 132.7° 10.6nm from FDO to field.
OP AEROPARQUE JORGE NEWBERY NDB. 131.1° 4.3nm from OP to field.

Runway Information

Runway 13 /31

Dimensions: 6890 x 131 ft.
Surface: ASP
 
Runway 13
Runway 31
Latitude: -34.553942 -34.563844
Longitude: -58.425247 -58.407506
Elevation: 18 ft. 18 ft.
Runway true heading: 126.3 306.3
 

Instrument Procedures

STARs (Standard Terminal Arrivals)

  STAR Rwy 13/16 PAGON7C SANANTONIO7C ASADA7C VALOS8C
  STAR Rwy 13/16 SURBO7A SARGO7C KOVUK7C TENIL7C BELGRANO7C
  STAR Rwy 31 SURBO2B SARGO7D KOVUK7D TENIL7D BELGRANO7D VALOS7D ASADA7D
  STAR Rwy 31 PAGON7D SANANTONIO7D

IAPs (Instrument Approach Procedures)

  VOR (DME) ILS (DME) Rwy 13 (From VANAR)
  VOR (DME) ILS (DME) Rwy 13
  LI ILS (DME) Rwy 13
  VOR (DME) LO LI Rwy 13 (From VANAR)
  LI LO LI Rwy 13
  LI Rwy 13 (From QUILMES)
  LI Rwy 31

Departure Procedures

  SID Rwy 13/31
  SID Rwy 13/31 Textual Description
  SID Rwy 13/31 LANDA3B BIVAM3B ATOVO3B
  SID 13/31 LANDA3B BIVAM3B ATOVO3B Textual Description
  SID Rwy 13/31 KUKEN7 SUROBO7 DORVO7 LAPLATA7
  SID Rwy 13/31 KUKEN7 SUROBO7 DORVO7 LAPLATA7 Textual Description
  SID S Rwy 13/31
  SID Rwy 13/31 Textual Description
Satellite photo at:
Airport distance calculator
From:
Weather Reports

METAR

SABE

SABE 231900Z 20013KT 190V250 9999 FEW030 SCT200 13/04 Q1016
SADF
10.6nm W
SADF 231900Z 18010KT 9999 FEW020 BKN200 12/05 Q1016
SAEZ
16.2nm S
SAEZ 231900Z 20010KT 160V240 9999 SCT029 BKN200 11/05 Q1016
SUCA
30.3nm NE
SUCA 231900Z 19018KT 9999 BKN015 XX/XX QXXXX

TAF

SABE
TAF SABE 231700Z 2318/2418 16015KT 9999 SCT025 BKN100 TX13/2418Z TN04/2411Z BECMG 2412/2414 22010KT CAVOK
SADF
10.6nm W
TAF SADF 231700Z 2318/2418 14010KT 9999 SCT020 SCT060 TX12/2418Z TN03/2409Z BECMG 2403/2405 18010KT 9999 SCT010 SCT060 BECMG 2409/2411 21010KT 5000 BR SCT010 BECMG 2413/2415 9999 SCT020
SAEZ
16.2nm S
TAF SAEZ 231700 2318/2418 17010KT 9999 SCT030 TX11/2418Z TN11/2410Z BECMG 2409/2412 22010KT CAVOK
SUCA
30.3nm NE
TAF SUCA 231700Z 2318/2418 18015KT 9999 BKN015 TX12/2418Z TN04/2410Z BECMG 2412/2414 24008KT
Safelog

 

Dauntless Aviation

© 2007-2014 Dauntless Aviation, all rights reserved
Information provided via PilotNav comes from a variety of official and unofficial data sources. As errors are possible, do not use PilotNav for primary flight planning purposes. Verify any information that you receive via PilotNav with current and canonical charts and other official documents. The material in this database is subject to database copyrights held by Dauntless Aviation and may not be copied without the express permission of Dauntless Aviation - licenses for use of part of all of this data are available for purchase; enquire via the Dauntless Aviation helpdesk. A number of mechanisms and markers exist in the database to protect against and identify infringement / copyright. Automated queries against this website are stictly prohibited, and all activity is logged and analyzed.